sensor_id;sensor_type;location;lat;lon;timestamp;pressure;altitude;pressure_sealevel;temperature;humidity
19600;BME280;9947;57.722;12.012;2023-03-16T00:01:45;101084.50;;;-4.22;100.00
19600;BME280;9947;57.722;12.012;2023-03-16T00:04:12;101092.41;;;-4.22;100.00
19600;BME280;9947;57.722;12.012;2023-03-16T00:06:39;101096.81;;;-4.21;100.00
19600;BME280;9947;57.722;12.012;2023-03-16T00:09:07;101095.97;;;-4.24;100.00
19600;BME280;9947;57.722;12.012;2023-03-16T00:11:34;101104.75;;;-4.24;100.00
19600;BME280;9947;57.722;12.012;2023-03-16T00:14:01;101104.81;;;-4.30;100.00
19600;BME280;9947;57.722;12.012;2023-03-16T00:16:29;101104.84;;;-4.31;100.00
19600;BME280;9947;57.722;12.012;2023-03-16T00:18:56;101108.47;;;-4.43;100.00
19600;BME280;9947;57.722;12.012;2023-03-16T00:21:26;101110.34;;;-4.56;100.00
19600;BME280;9947;57.722;12.012;2023-03-16T00:23:55;101105.97;;;-4.57;100.00
19600;BME280;9947;57.722;12.012;2023-03-16T00:26:23;101111.22;;;-4.54;100.00
19600;BME280;9947;57.722;12.012;2023-03-16T00:28:50;101115.63;;;-4.54;100.00
19600;BME280;9947;57.722;12.012;2023-03-16T00:31:18;101127.06;;;-4.55;100.00
19600;BME280;9947;57.722;12.012;2023-03-16T00:33:56;101128.78;;;-4.51;100.00
19600;BME280;9947;57.722;12.012;2023-03-16T00:36:23;101134.16;;;-4.62;100.00
19600;BME280;9947;57.722;12.012;2023-03-16T00:38:50;101135.97;;;-4.72;100.00
19600;BME280;9947;57.722;12.012;2023-03-16T00:41:18;101137.75;;;-4.74;100.00
19600;BME280;9947;57.722;12.012;2023-03-16T00:43:48;101138.63;;;-4.75;100.00
19600;BME280;9947;57.722;12.012;2023-03-16T00:46:16;101141.31;;;-4.78;100.00
19600;BME280;9947;57.722;12.012;2023-03-16T00:48:45;101140.34;;;-4.69;100.00
19600;BME280;9947;57.722;12.012;2023-03-16T00:51:14;101149.16;;;-4.66;100.00
19600;BME280;9947;57.722;12.012;2023-03-16T00:53:43;101146.53;;;-4.72;100.00
19600;BME280;9947;57.722;12.012;2023-03-16T00:56:17;101155.31;;;-4.67;100.00
19600;BME280;9947;57.722;12.012;2023-03-16T00:58:44;101161.44;;;-4.64;100.00
19600;BME280;9947;57.722;12.012;2023-03-16T01:01:14;101157.06;;;-4.66;100.00
19600;BME280;9947;57.722;12.012;2023-03-16T01:03:41;101163.22;;;-4.67;100.00
19600;BME280;9947;57.722;12.012;2023-03-16T01:06:10;101166.72;;;-4.64;100.00
19600;BME280;9947;57.722;12.012;2023-03-16T01:08:38;101168.50;;;-4.70;100.00
19600;BME280;9947;57.722;12.012;2023-03-16T01:11:07;101171.94;;;-4.58;100.00
19600;BME280;9947;57.722;12.012;2023-03-16T01:13:35;101171.94;;;-4.57;100.00
19600;BME280;9947;57.722;12.012;2023-03-16T01:16:02;101171.06;;;-4.57;100.00
19600;BME280;9947;57.722;12.012;2023-03-16T01:18:31;101180.75;;;-4.61;100.00
19600;BME280;9947;57.722;12.012;2023-03-16T01:20:59;101179.91;;;-4.63;100.00
19600;BME280;9947;57.722;12.012;2023-03-16T01:23:26;101175.50;;;-4.62;100.00
19600;BME280;9947;57.722;12.012;2023-03-16T01:25:54;101181.63;;;-4.59;100.00
19600;BME280;9947;57.722;12.012;2023-03-16T01:28:23;101189.56;;;-4.62;100.00
19600;BME280;9947;57.722;12.012;2023-03-16T01:30:51;101189.56;;;-4.63;100.00
19600;BME280;9947;57.722;12.012;2023-03-16T01:33:20;101195.75;;;-4.68;100.00
19600;BME280;9947;57.722;12.012;2023-03-16T01:35:57;101189.59;;;-4.71;100.00
19600;BME280;9947;57.722;12.012;2023-03-16T01:38:24;101192.28;;;-4.76;100.00
19600;BME280;9947;57.722;12.012;2023-03-16T01:40:53;101194.94;;;-4.80;100.00
19600;BME280;9947;57.722;12.012;2023-03-16T01:43:22;101196.75;;;-4.87;100.00
19600;BME280;9947;57.722;12.012;2023-03-16T01:46:18;101193.28;;;-4.95;100.00
19600;BME280;9947;57.722;12.012;2023-03-16T01:48:53;101200.34;;;-5.02;100.00
19600;BME280;9947;57.722;12.012;2023-03-16T01:51:23;101210.94;;;-5.09;100.00
19600;BME280;9947;57.722;12.012;2023-03-16T01:53:54;101209.22;;;-5.12;100.00
19600;BME280;9947;57.722;12.012;2023-03-16T01:56:31;101211.88;;;-5.15;100.00
19600;BME280;9947;57.722;12.012;2023-03-16T01:59:01;101216.25;;;-5.15;100.00
19600;BME280;9947;57.722;12.012;2023-03-16T02:01:31;101227.72;;;-5.25;100.00
19600;BME280;9947;57.722;12.012;2023-03-16T02:04:06;101226.84;;;-5.28;100.00
19600;BME280;9947;57.722;12.012;2023-03-16T02:06:40;101224.19;;;-5.24;100.00
19600;BME280;9947;57.722;12.012;2023-03-16T02:09:08;101224.22;;;-5.31;100.00
19600;BME280;9947;57.722;12.012;2023-03-16T02:11:36;101233.88;;;-5.30;100.00
19600;BME280;9947;57.722;12.012;2023-03-16T02:14:08;101232.13;;;-5.29;100.00
19600;BME280;9947;57.722;12.012;2023-03-16T02:16:35;101233.03;;;-5.38;100.00
19600;BME280;9947;57.722;12.012;2023-03-16T02:19:02;101240.06;;;-5.37;100.00
19600;BME280;9947;57.722;12.012;2023-03-16T02:21:38;101238.31;;;-5.35;100.00
19600;BME280;9947;57.722;12.012;2023-03-16T02:24:08;101248.84;;;-5.35;100.00
19600;BME280;9947;57.722;12.012;2023-03-16T02:26:40;101235.63;;;-5.29;100.00
19600;BME280;9947;57.722;12.012;2023-03-16T02:29:25;101243.56;;;-5.36;100.00
19600;BME280;9947;57.722;12.012;2023-03-16T02:31:57;101256.75;;;-5.39;100.00
19600;BME280;9947;57.722;12.012;2023-03-16T02:34:27;101254.16;;;-5.44;100.00
19600;BME280;9947;57.722;12.012;2023-03-16T02:36:55;101261.16;;;-5.43;100.00
19600;BME280;9947;57.722;12.012;2023-03-16T02:39:29;101261.09;;;-5.29;100.00
19600;BME280;9947;57.722;12.012;2023-03-16T02:41:56;101267.28;;;-5.33;100.00
19600;BME280;9947;57.722;12.012;2023-03-16T02:44:25;101273.47;;;-5.45;100.00
19600;BME280;9947;57.722;12.012;2023-03-16T02:46:57;101272.59;;;-5.53;100.00
19600;BME280;9947;57.722;12.012;2023-03-16T02:49:30;101269.97;;;-5.59;100.00
19600;BME280;9947;57.722;12.012;2023-03-16T02:52:00;101278.78;;;-5.69;100.00
19600;BME280;9947;57.722;12.012;2023-03-16T02:54:27;101277.03;;;-5.76;100.00
19600;BME280;9947;57.722;12.012;2023-03-16T02:56:54;101270.00;;;-5.77;100.00
19600;BME280;9947;57.722;12.012;2023-03-16T02:59:21;101280.56;;;-5.83;100.00
19600;BME280;9947;57.722;12.012;2023-03-16T03:01:48;101271.75;;;-5.76;100.00
19600;BME280;9947;57.722;12.012;2023-03-16T03:04:23;101276.13;;;-5.62;100.00
19600;BME280;9947;57.722;12.012;2023-03-16T03:06:51;101279.69;;;-5.72;100.00
19600;BME280;9947;57.722;12.012;2023-03-16T03:09:18;101279.66;;;-5.73;100.00
19600;BME280;9947;57.722;12.012;2023-03-16T03:11:45;101280.53;;;-5.74;100.00
19600;BME280;9947;57.722;12.012;2023-03-16T03:14:12;101284.06;;;-5.69;100.00
19600;BME280;9947;57.722;12.012;2023-03-16T03:16:41;101287.59;;;-5.84;100.00
19600;BME280;9947;57.722;12.012;2023-03-16T03:19:11;101280.63;;;-5.91;100.00
19600;BME280;9947;57.722;12.012;2023-03-16T03:21:40;101290.25;;;-5.92;100.00
19600;BME280;9947;57.722;12.012;2023-03-16T03:24:07;101290.28;;;-5.95;100.00
19600;BME280;9947;57.722;12.012;2023-03-16T03:26:34;101294.66;;;-5.97;100.00
19600;BME280;9947;57.722;12.012;2023-03-16T03:29:02;101292.88;;;-6.01;100.00
19600;BME280;9947;57.722;12.012;2023-03-16T03:31:29;101300.78;;;-6.05;100.00
19600;BME280;9947;57.722;12.012;2023-03-16T03:33:56;101304.28;;;-6.11;100.00
19600;BME280;9947;57.722;12.012;2023-03-16T03:36:23;101305.19;;;-6.16;100.00
19600;BME280;9947;57.722;12.012;2023-03-16T03:38:52;101300.78;;;-6.20;100.00
19600;BME280;9947;57.722;12.012;2023-03-16T03:41:20;101299.91;;;-6.21;100.00
19600;BME280;9947;57.722;12.012;2023-03-16T03:43:47;101309.56;;;-6.23;100.00
19600;BME280;9947;57.722;12.012;2023-03-16T03:46:14;101306.91;;;-6.26;100.00
19600;BME280;9947;57.722;12.012;2023-03-16T03:48:48;101313.03;;;-6.30;100.00
19600;BME280;9947;57.722;12.012;2023-03-16T03:51:27;101309.53;;;-6.35;100.00
19600;BME280;9947;57.722;12.012;2023-03-16T03:53:55;101308.66;;;-6.43;100.00
19600;BME280;9947;57.722;12.012;2023-03-16T03:56:22;101317.41;;;-6.47;100.00
19600;BME280;9947;57.722;12.012;2023-03-16T03:58:49;101315.69;;;-6.42;100.00
19600;BME280;9947;57.722;12.012;2023-03-16T04:01:16;101314.81;;;-6.40;100.00
19600;BME280;9947;57.722;12.012;2023-03-16T04:03:43;101313.91;;;-6.37;100.00
19600;BME280;9947;57.722;12.012;2023-03-16T04:06:10;101317.44;;;-6.40;100.00
19600;BME280;9947;57.722;12.012;2023-03-16T04:08:37;101315.66;;;-6.45;100.00
19600;BME280;9947;57.722;12.012;2023-03-16T04:11:05;101315.66;;;-6.45;100.00
19600;BME280;9947;57.722;12.012;2023-03-16T04:13:32;101316.56;;;-6.42;100.00
19600;BME280;9947;57.722;12.012;2023-03-16T04:16:00;101333.22;;;-6.41;100.00
19600;BME280;9947;57.722;12.012;2023-03-16T04:18:28;101334.09;;;-6.44;100.00
19600;BME280;9947;57.722;12.012;2023-03-16T04:21:03;101331.47;;;-6.42;100.00
19600;BME280;9947;57.722;12.012;2023-03-16T04:23:32;101327.94;;;-6.37;100.00
19600;BME280;9947;57.722;12.012;2023-03-16T04:25:59;101335.84;;;-6.38;100.00
19600;BME280;9947;57.722;12.012;2023-03-16T04:28:27;101333.22;;;-6.46;100.00
19600;BME280;9947;57.722;12.012;2023-03-16T04:30:54;101341.94;;;-6.52;100.00
19600;BME280;9947;57.722;12.012;2023-03-16T04:33:21;101344.59;;;-6.50;100.00
19600;BME280;9947;57.722;12.012;2023-03-16T04:35:48;101339.34;;;-6.48;100.00
19600;BME280;9947;57.722;12.012;2023-03-16T04:38:16;101338.41;;;-6.55;100.00
19600;BME280;9947;57.722;12.012;2023-03-16T04:40:43;101335.78;;;-6.57;100.00
19600;BME280;9947;57.722;12.012;2023-03-16T04:43:19;101335.78;;;-6.57;100.00
19600;BME280;9947;57.722;12.012;2023-03-16T04:45:49;101340.16;;;-6.57;100.00
19600;BME280;9947;57.722;12.012;2023-03-16T04:48:16;101343.66;;;-6.63;100.00
19600;BME280;9947;57.722;12.012;2023-03-16T04:50:43;101349.81;;;-6.64;100.00
19600;BME280;9947;57.722;12.012;2023-03-16T04:53:10;101355.94;;;-6.68;100.00
19600;BME280;9947;57.722;12.012;2023-03-16T04:55:37;101364.69;;;-6.67;100.00
19600;BME280;9947;57.722;12.012;2023-03-16T04:58:06;101364.69;;;-6.67;100.00
19600;BME280;9947;57.722;12.012;2023-03-16T05:00:33;101366.44;;;-6.68;100.00
19600;BME280;9947;57.722;12.012;2023-03-16T05:03:01;101371.69;;;-6.69;100.00
19600;BME280;9947;57.722;12.012;2023-03-16T05:05:28;101373.47;;;-6.64;100.00
19600;BME280;9947;57.722;12.012;2023-03-16T05:07:55;101383.13;;;-6.63;100.00
19600;BME280;9947;57.722;12.012;2023-03-16T05:10:22;101378.72;;;-6.62;100.00
19600;BME280;9947;57.722;12.012;2023-03-16T05:12:49;101385.75;;;-6.55;100.00
19600;BME280;9947;57.722;12.012;2023-03-16T05:15:16;101384.94;;;-6.49;100.00
19600;BME280;9947;57.722;12.012;2023-03-16T05:17:43;101384.00;;;-6.53;100.00
19600;BME280;9947;57.722;12.012;2023-03-16T05:20:13;101390.16;;;-6.51;100.00
19600;BME280;9947;57.722;12.012;2023-03-16T05:22:47;101391.06;;;-6.49;100.00
19600;BME280;9947;57.722;12.012;2023-03-16T05:25:15;101391.06;;;-6.47;100.00
19600;BME280;9947;57.722;12.012;2023-03-16T05:27:42;101395.44;;;-6.49;100.00
19600;BME280;9947;57.722;12.012;2023-03-16T05:30:10;101398.97;;;-6.44;100.00
19600;BME280;9947;57.722;12.012;2023-03-16T05:32:38;101401.59;;;-6.47;100.00
19600;BME280;9947;57.722;12.012;2023-03-16T05:35:07;101406.00;;;-6.42;100.00
19600;BME280;9947;57.722;12.012;2023-03-16T05:37:36;101415.63;;;-6.45;100.00
19600;BME280;9947;57.722;12.012;2023-03-16T05:40:03;101420.88;;;-6.42;100.00
19600;BME280;9947;57.722;12.012;2023-03-16T05:42:37;101423.53;;;-6.42;100.00
19600;BME280;9947;57.722;12.012;2023-03-16T05:45:05;101426.16;;;-6.39;100.00
19600;BME280;9947;57.722;12.012;2023-03-16T05:47:32;101428.81;;;-6.32;100.00
19600;BME280;9947;57.722;12.012;2023-03-16T05:50:01;101429.69;;;-6.30;100.00
19600;BME280;9947;57.722;12.012;2023-03-16T05:52:27;101430.56;;;-6.31;100.00
19600;BME280;9947;57.722;12.012;2023-03-16T05:54:56;101434.06;;;-6.29;100.00
19600;BME280;9947;57.722;12.012;2023-03-16T05:57:24;101438.47;;;-6.26;100.00
19600;BME280;9947;57.722;12.012;2023-03-16T05:59:51;101438.47;;;-6.25;100.00
19600;BME280;9947;57.722;12.012;2023-03-16T06:02:19;101435.88;;;-6.17;100.00
19600;BME280;9947;57.722;12.012;2023-03-16T06:04:45;101449.03;;;-6.09;100.00
19600;BME280;9947;57.722;12.012;2023-03-16T06:07:13;101447.31;;;-6.03;100.00
19600;BME280;9947;57.722;12.012;2023-03-16T06:09:40;101443.84;;;-5.89;100.00
19600;BME280;9947;57.722;12.012;2023-03-16T06:12:14;101452.56;;;-5.87;100.00
19600;BME280;9947;57.722;12.012;2023-03-16T06:14:41;101446.44;;;-5.88;100.00
19600;BME280;9947;57.722;12.012;2023-03-16T06:17:08;101447.34;;;-5.91;100.00
19600;BME280;9947;57.722;12.012;2023-03-16T06:19:41;101449.06;;;-5.80;100.00
19600;BME280;9947;57.722;12.012;2023-03-16T06:22:08;101449.09;;;-5.70;100.00
19600;BME280;9947;57.722;12.012;2023-03-16T06:24:35;101449.09;;;-5.62;100.00
19600;BME280;9947;57.722;12.012;2023-03-16T06:27:02;101450.81;;;-5.73;100.00
19600;BME280;9947;57.722;12.012;2023-03-16T06:29:30;101454.38;;;-5.64;100.00
19600;BME280;9947;57.722;12.012;2023-03-16T06:32:00;101452.59;;;-5.59;100.00
19600;BME280;9947;57.722;12.012;2023-03-16T06:34:27;101459.63;;;-5.50;100.00
19600;BME280;9947;57.722;12.012;2023-03-16T06:36:54;101456.13;;;-5.47;100.00
19600;BME280;9947;57.722;12.012;2023-03-16T06:39:21;101467.53;;;-5.48;100.00
19600;BME280;9947;57.722;12.012;2023-03-16T06:41:48;101468.44;;;-5.42;100.00
19600;BME280;9947;57.722;12.012;2023-03-16T06:44:15;101465.78;;;-5.34;100.00
19600;BME280;9947;57.722;12.012;2023-03-16T06:46:43;101468.41;;;-5.30;100.00
19600;BME280;9947;57.722;12.012;2023-03-16T06:49:11;101467.53;;;-5.27;100.00
19600;BME280;9947;57.722;12.012;2023-03-16T06:51:44;101468.41;;;-5.11;100.00
19600;BME280;9947;57.722;12.012;2023-03-16T06:54:11;101468.38;;;-4.94;100.00
19600;BME280;9947;57.722;12.012;2023-03-16T06:56:38;101470.13;;;-4.84;100.00
19600;BME280;9947;57.722;12.012;2023-03-16T06:59:05;101475.34;;;-4.69;100.00
19600;BME280;9947;57.722;12.012;2023-03-16T07:01:32;101473.56;;;-4.53;100.00
19600;BME280;9947;57.722;12.012;2023-03-16T07:04:00;101485.81;;;-4.31;100.00
19600;BME280;9947;57.722;12.012;2023-03-16T07:06:27;101486.63;;;-4.21;100.00
19600;BME280;9947;57.722;12.012;2023-03-16T07:08:54;101490.06;;;-3.99;100.00
19600;BME280;9947;57.722;12.012;2023-03-16T07:11:21;101489.13;;;-3.92;100.00
19600;BME280;9947;57.722;12.012;2023-03-16T07:13:53;101490.91;;;-3.94;100.00
19600;BME280;9947;57.722;12.012;2023-03-16T07:16:20;101484.78;;;-4.01;100.00
19600;BME280;9947;57.722;12.012;2023-03-16T07:18:47;101488.25;;;-3.87;100.00
19600;BME280;9947;57.722;12.012;2023-03-16T07:21:15;101488.97;;;-3.66;100.00
19600;BME280;9947;57.722;12.012;2023-03-16T07:23:42;101493.38;;;-3.62;100.00
19600;BME280;9947;57.722;12.012;2023-03-16T07:26:10;101503.00;;;-3.54;100.00
19600;BME280;9947;57.722;12.012;2023-03-16T07:28:37;101504.69;;;-3.44;100.00
19600;BME280;9947;57.722;12.012;2023-03-16T07:31:04;101504.66;;;-3.37;100.00
19600;BME280;9947;57.722;12.012;2023-03-16T07:33:38;101505.31;;;-3.13;100.00
19600;BME280;9947;57.722;12.012;2023-03-16T07:36:05;101504.41;;;-3.05;100.00
19600;BME280;9947;57.722;12.012;2023-03-16T07:38:36;101499.13;;;-3.08;100.00
19600;BME280;9947;57.722;12.012;2023-03-16T07:41:03;101505.34;;;-3.11;100.00
19600;BME280;9947;57.722;12.012;2023-03-16T07:43:30;101501.69;;;-3.01;100.00
19600;BME280;9947;57.722;12.012;2023-03-16T07:45:58;101511.97;;;-2.69;100.00
19600;BME280;9947;57.722;12.012;2023-03-16T07:48:26;101504.22;;;-2.86;100.00
19600;BME280;9947;57.722;12.012;2023-03-16T07:50:53;101507.66;;;-2.77;100.00
19600;BME280;9947;57.722;12.012;2023-03-16T07:53:27;101516.03;;;-2.36;100.00
19600;BME280;9947;57.722;12.012;2023-03-16T07:55:55;101510.88;;;-2.46;100.00
19600;BME280;9947;57.722;12.012;2023-03-16T07:58:22;101521.94;;;-2.12;100.00
19600;BME280;9947;57.722;12.012;2023-03-16T08:00:49;101520.31;;;-2.24;100.00
19600;BME280;9947;57.722;12.012;2023-03-16T08:03:16;101520.78;;;-1.90;100.00
19600;BME280;9947;57.722;12.012;2023-03-16T08:05:43;101521.34;;;-1.67;100.00
19600;BME280;9947;57.722;12.012;2023-03-16T08:08:17;101522.81;;;-1.46;100.00
19600;BME280;9947;57.722;12.012;2023-03-16T08:10:46;101521.72;;;-1.33;100.00
19600;BME280;9947;57.722;12.012;2023-03-16T08:13:15;101522.56;;;-1.28;100.00
19600;BME280;9947;57.722;12.012;2023-03-16T08:15:45;101512.13;;;-1.41;100.00
19600;BME280;9947;57.722;12.012;2023-03-16T08:18:12;101517.25;;;-1.28;100.00
19600;BME280;9947;57.722;12.012;2023-03-16T08:20:53;101513.09;;;-0.91;100.00
19600;BME280;9947;57.722;12.012;2023-03-16T08:23:31;101517.88;;;-0.61;100.00
19600;BME280;9947;57.722;12.012;2023-03-16T08:26:00;101526.97;;;-0.28;100.00
19600;BME280;9947;57.722;12.012;2023-03-16T08:28:49;101526.66;;;-0.11;100.00
19600;BME280;9947;57.722;12.012;2023-03-16T08:31:20;101533.41;;;0.05;100.00
19600;BME280;9947;57.722;12.012;2023-03-16T08:34:23;101535.84;;;0.16;100.00
19600;BME280;9947;57.722;12.012;2023-03-16T08:36:49;101536.09;;;0.44;100.00
19600;BME280;9947;57.722;12.012;2023-03-16T08:39:22;101539.09;;;0.30;100.00
19600;BME280;9947;57.722;12.012;2023-03-16T08:42:03;101536.72;;;0.56;100.00
19600;BME280;9947;57.722;12.012;2023-03-16T08:44:36;101523.41;;;0.93;100.00
19600;BME280;9947;57.722;12.012;2023-03-16T08:47:06;101528.53;;;1.01;100.00
19600;BME280;9947;57.722;12.012;2023-03-16T08:49:35;101533.16;;;1.30;100.00
19600;BME280;9947;57.722;12.012;2023-03-16T08:52:06;101537.59;;;1.64;100.00
19600;BME280;9947;57.722;12.012;2023-03-16T08:54:47;101544.25;;;2.11;100.00
19600;BME280;9947;57.722;12.012;2023-03-16T08:57:25;101538.69;;;2.48;100.00
19600;BME280;9947;57.722;12.012;2023-03-16T09:00:06;101537.53;;;2.85;100.00
19600;BME280;9947;57.722;12.012;2023-03-16T09:02:37;101545.69;;;3.34;100.00
19600;BME280;9947;57.722;12.012;2023-03-16T09:05:07;101540.47;;;3.56;100.00
19600;BME280;9947;57.722;12.012;2023-03-16T09:07:43;101554.78;;;3.55;100.00
19600;BME280;9947;57.722;12.012;2023-03-16T09:10:10;101548.28;;;3.87;100.00
19600;BME280;9947;57.722;12.012;2023-03-16T09:12:41;101550.53;;;3.99;90.99
19600;BME280;9947;57.722;12.012;2023-03-16T09:15:12;101557.56;;;4.02;91.54
19600;BME280;9947;57.722;12.012;2023-03-16T09:17:39;101551.13;;;4.08;86.13
19600;BME280;9947;57.722;12.012;2023-03-16T09:20:18;101561.66;;;4.36;81.56
19600;BME280;9947;57.722;12.012;2023-03-16T09:22:51;101565.38;;;4.08;77.16
19600;BME280;9947;57.722;12.012;2023-03-16T09:25:18;101565.09;;;4.39;73.20
19600;BME280;9947;57.722;12.012;2023-03-16T09:27:45;101558.28;;;4.30;74.46
19600;BME280;9947;57.722;12.012;2023-03-16T09:30:14;101558.59;;;4.70;74.77
19600;BME280;9947;57.722;12.012;2023-03-16T09:32:41;101565.81;;;4.89;71.25
19600;BME280;9947;57.722;12.012;2023-03-16T09:35:09;101567.47;;;4.70;64.65
19600;BME280;9947;57.722;12.012;2023-03-16T09:37:43;101558.09;;;4.82;62.99
19600;BME280;9947;57.722;12.012;2023-03-16T09:40:21;101560.41;;;4.68;60.62
19600;BME280;9947;57.722;12.012;2023-03-16T09:43:02;101564.19;;;5.07;59.85
19600;BME280;9947;57.722;12.012;2023-03-16T09:45:40;101568.69;;;5.29;58.51
19600;BME280;9947;57.722;12.012;2023-03-16T09:48:10;101568.88;;;5.24;56.89
19600;BME280;9947;57.722;12.012;2023-03-16T09:50:40;101566.81;;;5.31;55.06
19600;BME280;9947;57.722;12.012;2023-03-16T09:53:21;101566.16;;;5.46;55.75
19600;BME280;9947;57.722;12.012;2023-03-16T09:55:52;101564.25;;;5.28;54.28
19600;BME280;9947;57.722;12.012;2023-03-16T09:58:25;101569.75;;;5.45;54.34
19600;BME280;9947;57.722;12.012;2023-03-16T10:01:01;101571.09;;;4.91;54.83
19600;BME280;9947;57.722;12.012;2023-03-16T10:03:40;101575.53;;;4.70;53.56
19600;BME280;9947;57.722;12.012;2023-03-16T10:06:18;101570.63;;;5.03;52.82
19600;BME280;9947;57.722;12.012;2023-03-16T10:08:51;101578.59;;;5.26;54.01
19600;BME280;9947;57.722;12.012;2023-03-16T10:11:25;101582.09;;;5.07;51.89
19600;BME280;9947;57.722;12.012;2023-03-16T10:14:07;101581.53;;;4.99;53.28
19600;BME280;9947;57.722;12.012;2023-03-16T10:16:41;101575.59;;;5.12;52.04
19600;BME280;9947;57.722;12.012;2023-03-16T10:19:14;101580.25;;;5.51;51.70
19600;BME280;9947;57.722;12.012;2023-03-16T10:21:44;101582.69;;;5.13;51.51
19600;BME280;9947;57.722;12.012;2023-03-16T10:24:20;101578.41;;;5.31;50.87
19600;BME280;9947;57.722;12.012;2023-03-16T10:26:55;101578.13;;;5.37;51.06
19600;BME280;9947;57.722;12.012;2023-03-16T10:29:31;101580.09;;;5.34;51.63
19600;BME280;9947;57.722;12.012;2023-03-16T10:32:11;101576.97;;;5.22;51.90
19600;BME280;9947;57.722;12.012;2023-03-16T10:34:39;101571.28;;;5.30;51.13
19600;BME280;9947;57.722;12.012;2023-03-16T10:37:09;101586.00;;;5.20;50.83
19600;BME280;9947;57.722;12.012;2023-03-16T10:39:39;101578.97;;;5.60;50.82
19600;BME280;9947;57.722;12.012;2023-03-16T10:42:19;101583.47;;;5.59;51.31
19600;BME280;9947;57.722;12.012;2023-03-16T10:44:47;101575.38;;;5.61;51.93
19600;BME280;9947;57.722;12.012;2023-03-16T10:47:21;101576.84;;;5.25;51.18
19600;BME280;9947;57.722;12.012;2023-03-16T10:49:49;101578.78;;;5.00;50.63
19600;BME280;9947;57.722;12.012;2023-03-16T10:52:19;101567.94;;;5.03;51.18
19600;BME280;9947;57.722;12.012;2023-03-16T10:54:52;101576.31;;;4.94;50.78
19600;BME280;9947;57.722;12.012;2023-03-16T10:57:26;101573.03;;;5.09;50.56
19600;BME280;9947;57.722;12.012;2023-03-16T10:59:59;101574.03;;;5.07;51.13
19600;BME280;9947;57.722;12.012;2023-03-16T11:02:42;101565.31;;;5.23;50.48
19600;BME280;9947;57.722;12.012;2023-03-16T11:05:18;101562.88;;;5.17;50.21
19600;BME280;9947;57.722;12.012;2023-03-16T11:07:57;101567.59;;;4.89;47.75
19600;BME280;9947;57.722;12.012;2023-03-16T11:10:30;101563.72;;;4.98;46.76
19600;BME280;9947;57.722;12.012;2023-03-16T11:13:07;101557.91;;;5.30;47.38
19600;BME280;9947;57.722;12.012;2023-03-16T11:15:38;101563.38;;;5.27;45.65
19600;BME280;9947;57.722;12.012;2023-03-16T11:18:17;101568.72;;;5.49;46.04
19600;BME280;9947;57.722;12.012;2023-03-16T11:20:48;101566.59;;;5.35;48.53
19600;BME280;9947;57.722;12.012;2023-03-16T11:23:17;101557.78;;;5.11;46.79
19600;BME280;9947;57.722;12.012;2023-03-16T11:25:51;101553.41;;;4.87;49.05
19600;BME280;9947;57.722;12.012;2023-03-16T11:28:33;101553.47;;;5.07;49.18
19600;BME280;9947;57.722;12.012;2023-03-16T11:31:12;101553.94;;;4.97;47.25
19600;BME280;9947;57.722;12.012;2023-03-16T11:33:46;101552.94;;;5.21;47.62
19600;BME280;9947;57.722;12.012;2023-03-16T11:36:32;101547.50;;;5.43;46.39
19600;BME280;9947;57.722;12.012;2023-03-16T11:39:06;101553.34;;;5.32;45.52
19600;BME280;9947;57.722;12.012;2023-03-16T11:41:51;101550.72;;;5.09;45.69
19600;BME280;9947;57.722;12.012;2023-03-16T11:44:31;101552.28;;;4.92;45.61
19600;BME280;9947;57.722;12.012;2023-03-16T11:47:06;101551.28;;;5.17;43.89
19600;BME280;9947;57.722;12.012;2023-03-16T11:49:50;101543.00;;;5.01;44.12
19600;BME280;9947;57.722;12.012;2023-03-16T11:52:27;101540.63;;;5.15;43.28
19600;BME280;9947;57.722;12.012;2023-03-16T11:55:09;101535.78;;;5.25;43.93
19600;BME280;9947;57.722;12.012;2023-03-16T11:57:59;101549.13;;;5.67;43.30
19600;BME280;9947;57.722;12.012;2023-03-16T12:00:34;101543.09;;;5.62;43.46
19600;BME280;9947;57.722;12.012;2023-03-16T12:06:29;101548.63;;;5.79;43.76
19600;BME280;9947;57.722;12.012;2023-03-16T12:09:38;101538.81;;;5.58;44.36
19600;BME280;9947;57.722;12.012;2023-03-16T12:12:35;101542.72;;;5.51;44.89
19600;BME280;9947;57.722;12.012;2023-03-16T12:15:22;101524.25;;;5.84;44.62
19600;BME280;9947;57.722;12.012;2023-03-16T12:17:59;101525.00;;;5.87;44.53
19600;BME280;9947;57.722;12.012;2023-03-16T12:20:33;101506.75;;;5.35;43.85
19600;BME280;9947;57.722;12.012;2023-03-16T12:23:07;101503.59;;;5.25;44.19
19600;BME280;9947;57.722;12.012;2023-03-16T12:25:37;101510.03;;;5.21;44.84
19600;BME280;9947;57.722;12.012;2023-03-16T12:28:17;101505.09;;;5.52;44.23
19600;BME280;9947;57.722;12.012;2023-03-16T12:30:52;101512.72;;;5.82;44.85
19600;BME280;9947;57.722;12.012;2023-03-16T12:33:34;101501.00;;;6.05;43.14
19600;BME280;9947;57.722;12.012;2023-03-16T12:39:04;101502.22;;;5.77;41.54
19600;BME280;9947;57.722;12.012;2023-03-16T12:41:37;101491.69;;;5.73;40.84
19600;BME280;9947;57.722;12.012;2023-03-16T12:44:14;101494.97;;;5.79;39.61
19600;BME280;9947;57.722;12.012;2023-03-16T12:46:50;101495.22;;;5.94;39.65
19600;BME280;9947;57.722;12.012;2023-03-16T12:49:23;101484.34;;;5.97;40.06
19600;BME280;9947;57.722;12.012;2023-03-16T12:52:00;101481.00;;;5.71;38.73
19600;BME280;9947;57.722;12.012;2023-03-16T12:54:30;101480.16;;;5.50;38.38
19600;BME280;9947;57.722;12.012;2023-03-16T12:57:02;101488.63;;;5.19;38.53
19600;BME280;9947;57.722;12.012;2023-03-16T12:59:37;101491.75;;;5.51;38.10
19600;BME280;9947;57.722;12.012;2023-03-16T13:02:13;101480.00;;;5.33;38.11
19600;BME280;9947;57.722;12.012;2023-03-16T13:04:45;101478.34;;;5.51;39.68
19600;BME280;9947;57.722;12.012;2023-03-16T13:07:16;101476.31;;;5.36;39.62
19600;BME280;9947;57.722;12.012;2023-03-16T13:09:50;101480.47;;;5.43;40.47
19600;BME280;9947;57.722;12.012;2023-03-16T13:12:24;101477.56;;;5.88;40.68